Time;durP1;ratioP1;P1;durP2;ratioP2;P2;SDS_P1;SDS_P2;PMS_P1;PMS_P2;Temp;Humidity;BMP_temperature;BMP_pressure;BME280_temperature;BME280_humidity;BME280_pressure;Samples;Min_cycle;Max_cycle;Signal;HPM_P1;HPM_P2
2023/10/29 00:02:16;;;;;;;0.20;0.20;;;;;;;11.64;100.00;98998.41;5116731;28;20424;-55
2023/10/29 00:04:42;;;;;;;0.20;0.20;;;;;;;11.67;100.00;99000.97;5115937;28;20012;-56
2023/10/29 00:07:07;;;;;;;0.13;0.13;;;;;;;11.72;100.00;99000.97;5116345;28;20360;-55
2023/10/29 00:09:32;;;;;;;0.20;0.20;;;;;;;11.76;100.00;98988.03;5116442;28;20028;-55
2023/10/29 00:11:58;;;;;;;0.20;0.20;;;;;;;11.78;100.00;98986.28;5115525;28;20048;-56
2023/10/29 00:14:24;;;;;;;0.20;0.20;;;;;;;11.78;100.00;98973.38;5116381;28;20077;-56
2023/10/29 00:16:49;;;;;;;0.20;0.20;;;;;;;11.80;100.00;98968.22;5116174;28;20039;-56
2023/10/29 00:19:15;;;;;;;0.20;0.20;;;;;;;11.80;100.00;98957.88;5115887;28;20020;-55
2023/10/29 00:21:40;;;;;;;0.20;0.20;;;;;;;11.85;100.00;98967.34;5115586;28;20024;-55
2023/10/29 00:24:06;;;;;;;0.20;0.20;;;;;;;11.85;100.00;98946.69;5115563;28;20114;-55
2023/10/29 00:26:31;;;;;;;0.20;0.20;;;;;;;11.84;100.00;98929.47;5115869;28;20011;-55
2023/10/29 00:28:57;;;;;;;0.20;0.20;;;;;;;11.85;100.00;98922.59;5115684;28;20031;-55
2023/10/29 00:31:22;;;;;;;0.20;0.20;;;;;;;11.83;100.00;98916.59;5115707;28;20116;-55
2023/10/29 00:33:47;;;;;;;0.20;0.20;;;;;;;11.81;100.00;98916.59;5115802;28;20020;-56
2023/10/29 00:36:13;;;;;;;0.20;0.20;;;;;;;11.84;100.00;98921.72;5115039;28;20160;-55
2023/10/29 00:38:38;;;;;;;0.10;0.10;;;;;;;11.83;100.00;98925.19;5094827;28;20496;-56
2023/10/29 00:41:03;;;;;;;0.20;0.20;;;;;;;11.86;100.00;98921.72;5094985;28;20123;-55
2023/10/29 00:46:05;;;;;;;0.20;0.20;;;;;;;11.92;100.00;98931.16;5094763;28;20032;-55
2023/10/29 00:48:31;;;;;;;0.20;0.20;;;;;;;11.91;100.00;98937.19;5095143;28;20391;-55
2023/10/29 00:50:57;;;;;;;0.20;0.20;;;;;;;11.93;100.00;98935.44;5094969;28;20149;-56
2023/10/29 00:53:23;;;;;;;0.15;0.15;;;;;;;11.96;100.00;98922.56;5094670;28;20103;-55
2023/10/29 00:55:49;;;;;;;0.20;0.20;;;;;;;11.99;100.00;98917.38;5093773;28;20031;-55
2023/10/29 00:58:16;;;;;;;0.20;0.20;;;;;;;11.98;100.00;98923.38;5095097;28;20028;-55
2023/10/29 01:00:42;;;;;;;0.10;0.10;;;;;;;12.01;100.00;98920.81;5094403;28;20016;-56
2023/10/29 01:03:07;;;;;;;0.15;0.15;;;;;;;12.02;100.00;98913.03;5094956;28;20383;-56
2023/10/29 01:05:33;;;;;;;0.10;0.10;;;;;;;12.05;100.00;98917.31;5094869;28;20102;-54
2023/10/29 01:07:58;;;;;;;0.20;0.20;;;;;;;12.05;100.00;98908.72;5093928;28;20028;-55
2023/10/29 01:10:23;;;;;;;0.10;0.10;;;;;;;12.04;100.00;98896.69;5094574;28;20028;-54
2023/10/29 01:12:48;;;;;;;0.20;0.20;;;;;;;12.12;100.00;98897.47;5094709;28;20085;-56
2023/10/29 01:15:14;;;;;;;0.20;0.20;;;;;;;12.17;100.00;98896.59;5094461;28;20395;-55
2023/10/29 01:17:39;;;;;;;0.20;0.20;;;;;;;12.26;100.00;98882.72;5094302;28;20472;-56
2023/10/29 01:20:05;;;;;;;0.20;0.20;;;;;;;12.34;100.00;98887.81;5094729;28;20057;-56
2023/10/29 01:22:31;;;;;;;0.15;0.15;;;;;;;12.35;100.00;98894.69;5093956;28;20024;-54
2023/10/29 01:24:58;;;;;;;0.20;0.20;;;;;;;12.33;100.00;98868.00;5093974;28;20028;-55
2023/10/29 01:27:23;;;;;;;0.20;0.20;;;;;;;12.33;100.00;98870.59;5094258;28;20036;-56
2023/10/29 01:29:48;;;;;;;0.10;0.10;;;;;;;12.38;100.00;98875.72;5094291;28;20032;-55
2023/10/29 01:32:14;;;;;;;0.20;0.20;;;;;;;12.38;100.00;98891.22;5094488;28;20103;-55
2023/10/29 01:34:39;;;;;;;0.10;0.10;;;;;;;12.40;100.00;98892.91;5093677;28;20405;-55
2023/10/29 01:37:05;;;;;;;0.10;0.10;;;;;;;12.46;100.00;98879.94;5094439;28;20511;-54
2023/10/29 01:39:30;;;;;;;0.20;0.20;;;;;;;12.44;100.00;98883.41;5094177;28;20467;-55
2023/10/29 01:41:57;;;;;;;0.20;0.20;;;;;;;12.42;100.00;98870.53;5093238;28;20051;-55
2023/10/29 01:44:23;;;;;;;0.20;0.20;;;;;;;12.36;100.00;98870.56;5094221;28;20027;-55
2023/10/29 01:46:49;;;;;;;0.10;0.10;;;;;;;12.39;100.00;98867.94;5094090;28;20036;-55
2023/10/29 01:49:14;;;;;;;0.10;0.10;;;;;;;12.37;100.00;98848.16;5093567;28;20440;-55
2023/10/29 01:51:40;;;;;;;0.10;0.10;;;;;;;12.30;100.00;98852.53;5093569;28;20038;-55
2023/10/29 01:54:05;;;;;;;0.20;0.20;;;;;;;12.31;100.00;98862.00;5094050;28;20028;-54
2023/10/29 01:56:30;;;;;;;0.20;0.20;;;;;;;12.35;100.00;98853.34;5093678;28;20031;-55
2023/10/29 01:58:57;;;;;;;0.20;0.20;;;;;;;12.28;100.00;98874.97;5093567;28;20471;-55
2023/10/29 02:01:23;;;;;;;0.20;0.20;;;;;;;12.25;100.00;98862.06;5093944;28;20024;-55
2023/10/29 02:03:48;;;;;;;0.20;0.20;;;;;;;12.19;100.00;98858.66;5093069;28;20380;-55
2023/10/29 02:06:19;;;;;;;0.10;0.10;;;;;;;12.17;100.00;98870.75;5093576;28;20024;-55
2023/10/29 02:08:45;;;;;;;0.10;0.10;;;;;;;12.17;100.00;98873.34;5093243;28;20032;-55
2023/10/29 02:11:11;;;;;;;0.20;0.20;;;;;;;12.17;100.00;98868.19;5093417;28;20032;-54
2023/10/29 02:13:36;;;;;;;0.20;0.20;;;;;;;12.17;100.00;98863.00;5093173;28;20463;-55
2023/10/29 02:16:03;;;;;;;0.20;0.20;;;;;;;12.19;100.00;98865.56;5093677;28;20025;-54
2023/10/29 02:18:29;;;;;;;0.17;0.17;;;;;;;12.19;100.00;98869.00;5093287;28;20024;-55
2023/10/29 02:20:54;;;;;;;0.10;0.10;;;;;;;12.16;100.00;98863.88;5092996;28;20024;-55
2023/10/29 02:23:19;;;;;;;0.20;0.20;;;;;;;12.19;100.00;98853.50;5093454;28;20052;-54
2023/10/29 02:25:45;;;;;;;0.20;0.20;;;;;;;12.21;100.00;98868.13;5092836;28;20028;-55
2023/10/29 02:28:10;;;;;;;0.20;0.20;;;;;;;12.21;100.00;98856.06;5093002;28;20027;-55
2023/10/29 02:30:35;;;;;;;0.20;0.20;;;;;;;12.24;100.00;98862.94;5093224;28;20483;-55
2023/10/29 02:33:00;;;;;;;0.10;0.10;;;;;;;12.23;100.00;98853.50;5092818;28;20020;-54
2023/10/29 02:35:26;;;;;;;0.20;0.20;;;;;;;12.21;100.00;98855.22;5093166;28;20031;-54
2023/10/29 02:37:51;;;;;;;0.20;0.20;;;;;;;12.23;100.00;98866.41;5092406;28;20065;-55
2023/10/29 02:40:16;;;;;;;0.20;0.20;;;;;;;12.23;100.00;98863.81;5092948;28;20024;-55
2023/10/29 02:42:42;;;;;;;0.20;0.20;;;;;;;12.21;100.00;98865.56;5092812;28;20040;-54
2023/10/29 02:45:07;;;;;;;0.20;0.20;;;;;;;12.25;100.00;98862.06;5092607;28;20574;-55
2023/10/29 02:47:33;;;;;;;0.10;0.10;;;;;;;12.28;100.00;98857.72;5092823;28;20030;-55
2023/10/29 02:49:58;;;;;;;0.10;0.10;;;;;;;12.30;100.00;98847.38;5092745;28;20442;-55
2023/10/29 02:52:24;;;;;;;0.20;0.20;;;;;;;12.33;100.00;98845.63;5092554;28;20065;-54
2023/10/29 02:54:50;;;;;;;0.20;0.20;;;;;;;12.38;100.00;98853.31;5092659;28;20024;-55
2023/10/29 02:57:16;;;;;;;0.20;0.20;;;;;;;12.40;100.00;98846.41;5093142;28;20092;-56
2023/10/29 02:59:41;;;;;;;0.20;0.20;;;;;;;12.46;100.00;98856.69;5092126;28;20042;-55
2023/10/29 03:02:06;;;;;;;0.20;0.20;;;;;;;12.48;100.00;98847.19;5092769;28;20024;-54
2023/10/29 03:04:33;;;;;;;0.20;0.20;;;;;;;12.58;100.00;98853.13;5093090;28;20016;-55
2023/10/29 03:06:58;;;;;;;0.20;0.20;;;;;;;12.61;100.00;98839.31;5092040;28;20112;-55
2023/10/29 03:09:23;;;;;;;0.10;0.10;;;;;;;12.67;100.00;98839.25;5092470;28;20111;-54
2023/10/29 03:11:49;;;;;;;0.20;0.20;;;;;;;12.71;100.00;98840.91;5092777;28;20028;-55
2023/10/29 03:14:14;;;;;;;0.20;0.20;;;;;;;12.75;100.00;98837.41;5092480;28;20031;-55
2023/10/29 03:16:39;;;;;;;0.20;0.20;;;;;;;12.70;100.00;98838.38;5092489;28;20028;-56
2023/10/29 03:19:05;;;;;;;0.20;0.20;;;;;;;12.80;100.00;98851.16;5095149;28;20414;-55
2023/10/29 03:21:30;;;;;;;0.10;0.10;;;;;;;12.84;100.00;98860.56;5096444;28;20468;-55
2023/10/29 03:23:56;;;;;;;0.10;0.10;;;;;;;12.88;100.00;98845.03;5096351;28;20028;-54
2023/10/29 03:26:21;;;;;;;0.17;0.17;;;;;;;12.95;100.00;98849.25;5096901;28;20051;-55
2023/10/29 03:28:46;;;;;;;0.10;0.10;;;;;;;12.91;100.00;98832.94;5096148;28;20165;-54
2023/10/29 03:31:16;;;;;;;0.20;0.20;;;;;;;12.92;100.00;98854.47;5096710;28;20364;-55
2023/10/29 03:33:41;;;;;;;0.20;0.20;;;;;;;12.88;100.00;98852.81;5096440;28;20094;-54
2023/10/29 03:36:08;;;;;;;0.10;0.10;;;;;;;12.89;100.00;98864.88;5096293;28;20051;-55
2023/10/29 03:38:33;;;;;;;0.10;0.10;;;;;;;12.87;100.00;98856.25;5096407;28;20475;-54
2023/10/29 03:40:59;;;;;;;0.20;0.20;;;;;;;12.90;100.00;98858.78;5095930;28;20028;-55
2023/10/29 03:43:24;;;;;;;0.10;0.10;;;;;;;12.88;100.00;98861.41;5096516;28;20074;-55
2023/10/29 03:45:49;;;;;;;0.10;0.10;;;;;;;12.85;100.00;98866.63;5096280;28;20379;-54
2023/10/29 03:48:15;;;;;;;0.10;0.10;;;;;;;12.79;100.00;98853.75;5095927;28;20103;-54
2023/10/29 03:50:41;;;;;;;0.20;0.20;;;;;;;12.70;100.00;98848.69;5095866;28;20115;-54
2023/10/29 03:53:07;;;;;;;0.20;0.20;;;;;;;12.60;100.00;98847.94;5096623;28;20035;-54
2023/10/29 03:55:36;;;;;;;0.20;0.20;;;;;;;12.54;100.00;98848.00;5095760;28;20099;-55
2023/10/29 03:58:01;;;;;;;0.20;0.20;;;;;;;12.46;100.00;98843.78;5096058;28;20376;-55
2023/10/29 04:00:27;;;;;;;0.20;0.20;;;;;;;12.41;100.00;98847.25;5096201;28;20025;-54
2023/10/29 04:02:52;;;;;;;0.20;0.20;;;;;;;12.35;100.00;98850.78;5095344;28;20032;-54
2023/10/29 04:05:18;;;;;;;0.10;0.10;;;;;;;12.35;100.00;98850.78;5095925;28;20094;-54
2023/10/29 04:07:43;;;;;;;0.13;0.13;;;;;;;12.32;100.00;98840.50;5096001;28;20020;-55
2023/10/29 04:10:09;;;;;;;0.20;0.20;;;;;;;12.41;100.00;98837.81;5095647;28;20032;-54
2023/10/29 04:12:34;;;;;;;0.10;0.10;;;;;;;12.43;100.00;98846.38;5095751;28;20028;-55
2023/10/29 04:15:00;;;;;;;0.20;0.20;;;;;;;12.45;100.00;98849.81;5096021;28;20020;-54
2023/10/29 04:17:25;;;;;;;0.15;0.15;;;;;;;12.46;100.00;98859.28;5095395;28;20024;-54
2023/10/29 04:19:50;;;;;;;0.17;0.17;;;;;;;12.48;100.00;98867.84;5095262;28;20027;-54
2023/10/29 04:22:16;;;;;;;0.20;0.20;;;;;;;12.52;100.00;98868.69;5095759;28;20034;-54
2023/10/29 04:24:41;;;;;;;0.10;0.10;;;;;;;12.55;100.00;98860.03;5095160;28;20094;-55
2023/10/29 04:27:07;;;;;;;0.20;0.20;;;;;;;12.58;100.00;98871.22;5095550;28;20027;-54
2023/10/29 04:29:32;;;;;;;0.10;0.10;;;;;;;12.62;100.00;98872.03;5094684;28;20024;-55
2023/10/29 04:31:57;;;;;;;0.20;0.20;;;;;;;12.67;100.00;98885.78;5094882;28;20028;-55
2023/10/29 04:34:22;;;;;;;0.13;0.13;;;;;;;12.73;100.00;98885.72;5095364;28;20020;-55
2023/10/29 04:36:51;;;;;;;0.13;0.13;;;;;;;12.70;100.00;98870.22;5095314;28;20030;-55
2023/10/29 04:39:18;;;;;;;0.10;0.10;;;;;;;12.66;100.00;98874.56;5095105;28;20154;-54
2023/10/29 04:41:44;;;;;;;0.10;0.10;;;;;;;12.59;100.00;98865.19;5094765;28;20427;-55
2023/10/29 04:44:09;;;;;;;0.20;0.20;;;;;;;12.55;100.00;98870.38;5095471;28;20027;-54
2023/10/29 04:46:34;;;;;;;0.10;0.10;;;;;;;12.50;100.00;98873.03;5094586;28;20020;-54
2023/10/29 04:48:59;;;;;;;0.20;0.20;;;;;;;12.46;100.00;98866.16;5095113;28;20103;-54
2023/10/29 04:51:26;;;;;;;0.20;0.20;;;;;;;12.47;100.00;98868.75;5094961;28;20387;-56
2023/10/29 04:53:52;;;;;;;0.20;0.20;;;;;;;12.52;100.00;98874.72;5094655;28;20475;-54
2023/10/29 04:56:17;;;;;;;0.20;0.20;;;;;;;12.54;100.00;98882.47;5095376;28;20110;-54
2023/10/29 04:58:42;;;;;;;0.20;0.20;;;;;;;12.57;100.00;98874.66;5094326;28;20082;-54
2023/10/29 05:01:08;;;;;;;0.20;0.20;;;;;;;12.62;100.00;98878.06;5094945;28;20028;-54
2023/10/29 05:03:33;;;;;;;0.20;0.20;;;;;;;12.59;100.00;98882.38;5095005;28;20020;-54
2023/10/29 05:05:59;;;;;;;0.13;0.13;;;;;;;12.51;100.00;98878.19;5094191;28;20032;-54
2023/10/29 05:08:24;;;;;;;0.20;0.20;;;;;;;12.44;100.00;98892.00;5094879;28;20468;-54
2023/10/29 05:10:49;;;;;;;0.20;0.20;;;;;;;12.39;100.00;98898.94;5094723;28;20020;-54
2023/10/29 05:13:15;;;;;;;0.20;0.20;;;;;;;12.30;100.00;98896.47;5094447;28;20099;-53
2023/10/29 05:15:40;;;;;;;0.10;0.10;;;;;;;12.28;100.00;98908.53;5094347;28;20388;-54
2023/10/29 05:18:05;;;;;;;0.10;0.10;;;;;;;12.17;100.00;98924.13;5094826;28;20035;-53
2023/10/29 05:20:31;;;;;;;0.20;0.20;;;;;;;12.01;100.00;98929.38;5094052;28;20077;-56
2023/10/29 05:22:56;;;;;;;0.10;0.10;;;;;;;11.89;100.00;98938.91;5094230;28;20379;-55
2023/10/29 05:25:21;;;;;;;0.20;0.20;;;;;;;11.78;100.00;98903.69;5094741;28;20032;-55
2023/10/29 05:27:51;;;;;;;0.20;0.20;;;;;;;11.68;100.00;98922.69;5093680;28;20020;-55
2023/10/29 05:30:16;;;;;;;0.20;0.20;;;;;;;11.61;100.00;98934.78;5094214;28;20360;-56
2023/10/29 05:32:41;;;;;;;0.17;0.17;;;;;;;11.54;100.00;98935.66;5094130;28;20031;-56
2023/10/29 05:35:08;;;;;;;0.15;0.15;;;;;;;11.48;100.00;98909.91;5093817;28;20493;-56
2023/10/29 05:37:33;;;;;;;0.20;0.20;;;;;;;11.40;100.00;98912.53;5094371;28;20035;-56
2023/10/29 05:39:59;;;;;;;0.10;0.10;;;;;;;11.32;100.00;98924.59;5094201;28;20024;-55
2023/10/29 05:42:25;;;;;;;0.20;0.20;;;;;;;11.22;100.00;98921.22;5093504;28;20048;-55
2023/10/29 05:44:50;;;;;;;0.20;0.20;;;;;;;11.12;100.00;98937.59;5093844;28;20028;-56
2023/10/29 05:47:15;;;;;;;0.20;0.20;;;;;;;10.99;100.00;98947.06;5094292;28;20038;-56
2023/10/29 05:49:41;;;;;;;0.20;0.20;;;;;;;10.93;100.00;98944.50;5093109;28;20107;-56
2023/10/29 05:52:06;;;;;;;0.20;0.20;;;;;;;10.89;100.00;98955.69;5094284;28;20016;-56
2023/10/29 05:54:31;;;;;;;0.20;0.20;;;;;;;10.87;100.00;98951.38;5094226;28;20038;-56
2023/10/29 05:56:57;;;;;;;0.20;0.20;;;;;;;10.83;100.00;98961.69;5093034;28;20024;-56
2023/10/29 05:59:23;;;;;;;0.20;0.20;;;;;;;10.78;100.00;98974.59;5094050;28;20020;-56
2023/10/29 06:01:48;;;;;;;0.20;0.20;;;;;;;10.78;100.00;98987.50;5093014;28;20111;-54
2023/10/29 06:04:13;;;;;;;0.20;0.20;;;;;;;10.83;100.00;98982.31;5093673;28;20498;-56
2023/10/29 06:06:39;;;;;;;0.20;0.20;;;;;;;10.77;100.00;98990.03;5093755;28;20464;-56
2023/10/29 06:09:04;;;;;;;0.20;0.20;;;;;;;10.81;100.00;99005.50;5093381;28;20049;-56
2023/10/29 06:11:29;;;;;;;0.20;0.20;;;;;;;10.83;100.00;98998.66;5093639;28;20078;-54
2023/10/29 06:13:57;;;;;;;0.20;0.20;;;;;;;10.80;100.00;99001.22;5093668;28;20039;-56
2023/10/29 06:16:23;;;;;;;0.20;0.20;;;;;;;10.80;100.00;99001.22;5093187;28;20024;-55
2023/10/29 06:18:48;;;;;;;0.20;0.20;;;;;;;10.75;100.00;99013.25;5092904;28;20550;-55
2023/10/29 06:21:13;;;;;;;0.30;0.30;;;;;;;10.81;100.00;99020.97;5093484;28;20020;-56
2023/10/29 06:23:39;;;;;;;0.20;0.20;;;;;;;10.80;100.00;99021.84;5092588;28;20023;-55
2023/10/29 06:26:08;;;;;;;0.20;0.20;;;;;;;10.76;100.00;99025.28;5093430;28;20467;-55
2023/10/29 06:28:34;;;;;;;0.30;0.30;;;;;;;10.75;100.00;99031.28;5093298;28;20426;-55
2023/10/29 06:30:59;;;;;;;0.20;0.20;;;;;;;10.76;100.00;99033.00;5092531;28;20471;-55
2023/10/29 06:33:24;;;;;;;0.13;0.13;;;;;;;10.75;100.00;99031.28;5093052;28;20027;-55
2023/10/29 06:35:50;;;;;;;0.20;0.20;;;;;;;10.73;100.00;99035.59;5093211;28;20017;-56
2023/10/29 06:38:15;;;;;;;0.20;0.20;;;;;;;10.75;100.00;99035.59;5092874;28;20028;-55
2023/10/29 06:40:40;;;;;;;0.20;0.20;;;;;;;10.73;100.00;99033.03;5092808;28;20024;-55
2023/10/29 06:43:06;;;;;;;0.20;0.20;;;;;;;10.74;100.00;99044.16;5092982;28;20075;-55
2023/10/29 06:45:31;;;;;;;0.20;0.20;;;;;;;10.72;100.00;99054.47;5092689;28;20039;-56
2023/10/29 06:47:56;;;;;;;0.15;0.15;;;;;;;10.69;100.00;99055.34;5092515;28;20031;-55
2023/10/29 06:50:22;;;;;;;0.20;0.20;;;;;;;10.70;100.00;99058.75;5092940;28;20020;-55
2023/10/29 06:52:47;;;;;;;0.20;0.20;;;;;;;10.70;100.00;99062.22;5091645;28;20096;-54
2023/10/29 06:55:13;;;;;;;0.20;0.20;;;;;;;10.68;100.00;99066.50;5092737;28;20031;-55
2023/10/29 06:57:38;;;;;;;0.20;0.20;;;;;;;10.66;100.00;99080.25;5092530;28;20451;-55
2023/10/29 07:00:04;;;;;;;0.20;0.20;;;;;;;10.65;100.00;99074.25;5092272;28;20020;-55
2023/10/29 07:02:31;;;;;;;0.20;0.20;;;;;;;10.67;100.00;99069.09;5092737;28;20099;-55
2023/10/29 07:04:58;;;;;;;0.20;0.20;;;;;;;10.65;100.00;99089.69;5092114;28;20024;-56
2023/10/29 07:07:25;;;;;;;0.20;0.20;;;;;;;10.66;100.00;99093.97;5092858;28;20028;-55
2023/10/29 07:09:50;;;;;;;0.20;0.20;;;;;;;10.64;100.00;99089.66;5092668;28;20070;-55
2023/10/29 07:12:16;;;;;;;0.20;0.20;;;;;;;10.69;100.00;99098.25;5092344;28;20041;-55
2023/10/29 07:14:42;;;;;;;0.17;0.17;;;;;;;10.69;100.00;99103.41;5092332;28;20112;-55
2023/10/29 07:17:07;;;;;;;0.20;0.20;;;;;;;10.73;100.00;99117.16;5092797;28;20099;-54
2023/10/29 07:19:32;;;;;;;0.20;0.20;;;;;;;10.76;100.00;99112.88;5092412;28;20106;-55
2023/10/29 07:21:58;;;;;;;0.20;0.20;;;;;;;10.79;100.00;99115.44;5092128;28;20020;-55
2023/10/29 07:24:23;;;;;;;0.20;0.20;;;;;;;10.78;100.00;99113.75;5092854;28;20498;-55
2023/10/29 07:26:48;;;;;;;0.22;0.22;;;;;;;10.81;100.00;99108.59;5091937;28;20031;-55
2023/10/29 07:29:14;;;;;;;0.20;0.20;;;;;;;10.82;100.00;99120.63;5092402;28;20028;-55
2023/10/29 07:31:39;;;;;;;0.20;0.20;;;;;;;10.82;100.00;99125.78;5092242;28;20090;-55
2023/10/29 07:34:04;;;;;;;0.10;0.10;;;;;;;10.84;100.00;99131.78;5092046;28;20103;-54
2023/10/29 07:36:30;;;;;;;0.20;0.20;;;;;;;10.92;100.00;99146.41;5092300;28;20039;-55
2023/10/29 07:38:55;;;;;;;0.20;0.20;;;;;;;10.98;100.00;99147.25;5092411;28;20487;-55
2023/10/29 07:41:21;;;;;;;0.20;0.20;;;;;;;11.01;100.00;99141.25;5091935;28;20036;-55
2023/10/29 07:43:47;;;;;;;0.20;0.20;;;;;;;11.04;100.00;99142.09;5092592;28;20024;-55
2023/10/29 07:46:13;;;;;;;0.20;0.20;;;;;;;11.10;100.00;99150.72;5092478;28;20035;-55
2023/10/29 07:48:38;;;;;;;0.20;0.20;;;;;;;11.17;100.00;99152.44;5091811;28;20028;-55
2023/10/29 07:51:04;;;;;;;0.20;0.20;;;;;;;11.25;100.00;99150.69;5092503;28;20368;-55
2023/10/29 07:53:32;;;;;;;0.20;0.20;;;;;;;11.33;100.00;99153.28;5100562;28;20019;-54
2023/10/29 07:56:10;;;;;;;0.20;0.20;;;;;;;11.44;100.00;99156.72;5091685;28;20029;-54
2023/10/29 07:58:37;;;;;;;0.20;0.20;;;;;;;11.52;100.00;99149.81;5092174;28;20044;-55
2023/10/29 08:01:03;;;;;;;0.20;0.20;;;;;;;11.57;100.00;99164.41;5092578;28;20031;-54
2023/10/29 08:03:28;;;;;;;0.20;0.20;;;;;;;11.64;100.00;99153.25;5091879;28;20024;-54
2023/10/29 08:05:53;;;;;;;0.20;0.20;;;;;;;11.74;100.00;99149.78;5095700;28;20599;-55
2023/10/29 08:08:19;;;;;;;0.20;0.20;;;;;;;11.82;100.00;99158.34;5095685;28;20031;-52
2023/10/29 08:10:45;;;;;;;0.20;0.20;;;;;;;11.95;100.00;99168.66;5095539;28;20121;-54
2023/10/29 08:13:10;;;;;;;0.20;0.20;;;;;;;12.02;100.00;99171.22;5096075;28;20024;-54
2023/10/29 08:15:39;;;;;;;0.20;0.20;;;;;;;12.14;100.00;99185.81;5095107;28;20801;-55
2023/10/29 08:18:04;;;;;;;0.20;0.20;;;;;;;12.22;100.00;99179.78;5095811;28;20020;-55
2023/10/29 08:20:31;;;;;;;0.20;0.20;;;;;;;12.32;100.00;99202.13;5095996;28;20024;-55
2023/10/29 08:22:56;;;;;;;0.20;0.20;;;;;;;12.43;100.00;99192.59;5095124;28;20078;-55
2023/10/29 08:25:21;;;;;;;0.20;0.20;;;;;;;12.47;100.00;99193.44;5095471;28;20028;-55
2023/10/29 08:27:47;;;;;;;0.20;0.20;;;;;;;12.43;100.00;99202.06;5097979;28;20116;-55
2023/10/29 08:30:12;;;;;;;0.10;0.10;;;;;;;12.47;100.00;99206.34;5095053;28;20085;-53
2023/10/29 08:32:38;;;;;;;0.20;0.20;;;;;;;12.45;100.00;99201.19;5095324;28;20118;-54
2023/10/29 08:35:06;;;;;;;0.10;0.10;;;;;;;12.45;100.00;99200.34;5095657;28;20107;-53
2023/10/29 08:37:34;;;;;;;0.20;0.20;;;;;;;12.50;100.00;99209.78;5095097;28;20032;-54
2023/10/29 08:40:00;;;;;;;0.17;0.17;;;;;;;12.61;100.00;99203.69;5095249;28;20020;-53
2023/10/29 08:42:32;;;;;;;0.20;0.20;;;;;;;12.75;100.00;99213.97;5095280;28;20054;-55
2023/10/29 08:44:58;;;;;;;0.20;0.20;;;;;;;12.87;100.00;99211.31;5094820;28;20024;-54
2023/10/29 08:47:25;;;;;;;0.20;0.20;;;;;;;12.94;100.00;99209.56;5095305;28;20108;-54
2023/10/29 08:49:50;;;;;;;0.20;0.20;;;;;;;12.98;100.00;99212.09;5095111;28;20024;-54
2023/10/29 08:52:17;;;;;;;0.20;0.20;;;;;;;13.07;100.00;99231.88;5094562;28;20031;-54
2023/10/29 08:54:43;;;;;;;0.20;0.20;;;;;;;13.09;100.00;99237.91;5095086;28;20037;-54
2023/10/29 08:57:08;;;;;;;0.20;0.20;;;;;;;13.20;100.00;99250.75;5095065;28;20020;-54
2023/10/29 08:59:33;;;;;;;0.10;0.10;;;;;;;13.34;100.00;99246.34;5094637;28;20030;-54
2023/10/29 09:01:58;;;;;;;0.20;0.20;;;;;;;13.48;100.00;99246.28;5094751;28;20117;-54
2023/10/29 09:04:24;;;;;;;0.20;0.20;;;;;;;13.72;100.00;99253.84;5095103;28;20020;-54
2023/10/29 09:06:49;;;;;;;0.20;0.20;;;;;;;13.89;100.00;99270.09;5094071;28;20020;-55
2023/10/29 09:09:14;;;;;;;0.20;0.20;;;;;;;14.01;99.57;99276.88;5094840;28;20375;-55
2023/10/29 09:11:43;;;;;;;0.20;0.20;;;;;;;14.18;98.12;99283.59;5094083;28;20031;-55
2023/10/29 09:14:10;;;;;;;0.10;0.10;;;;;;;14.38;99.38;99278.22;5094880;28;20031;-54
2023/10/29 09:16:36;;;;;;;0.17;0.17;;;;;;;14.30;95.75;99286.06;5093966;28;20077;-54
2023/10/29 09:19:01;;;;;;;0.20;0.20;;;;;;;13.93;95.87;99291.63;5094497;28;20028;-52
2023/10/29 09:21:27;;;;;;;0.20;0.20;;;;;;;13.61;97.87;99290.19;5094753;28;20416;-54
2023/10/29 09:23:52;;;;;;;0.10;0.10;;;;;;;13.38;98.64;99301.56;5094353;28;20020;-55
2023/10/29 09:26:17;;;;;;;0.10;0.10;;;;;;;13.29;100.00;99305.03;5094105;28;20476;-54
2023/10/29 09:28:43;;;;;;;0.10;0.10;;;;;;;13.44;100.00;99298.94;5094002;28;20519;-55
2023/10/29 09:31:13;;;;;;;0.10;0.10;;;;;;;13.69;100.00;99295.31;5094652;28;20565;-54
2023/10/29 09:33:39;;;;;;;0.10;0.10;;;;;;;14.00;97.96;99294.13;5093773;28;20027;-55
2023/10/29 09:36:04;;;;;;;0.20;0.20;;;;;;;14.45;95.05;99292.84;5094254;28;20031;-55
2023/10/29 09:38:30;;;;;;;0.10;0.10;;;;;;;14.71;95.31;99289.13;5094348;28;20121;-55
2023/10/29 09:40:55;;;;;;;0.10;0.10;;;;;;;14.85;93.01;99283.72;5093521;28;20095;-55
2023/10/29 09:43:26;;;;;;;0.10;0.10;;;;;;;14.81;90.22;99299.34;5093968;28;20364;-56
2023/10/29 09:45:52;;;;;;;0.10;0.10;;;;;;;14.57;90.97;99310.81;5094192;28;20114;-55
2023/10/29 09:48:17;;;;;;;0.10;0.10;;;;;;;14.40;93.11;99298.06;5093431;28;20050;-55
2023/10/29 09:50:43;;;;;;;0.10;0.10;;;;;;;14.43;94.42;99290.25;5093986;28;20430;-55
2023/10/29 09:53:12;;;;;;;0.10;0.10;;;;;;;14.39;93.11;99296.34;5094132;28;20028;-54
2023/10/29 09:55:39;;;;;;;0.10;0.10;;;;;;;14.44;93.20;99299.75;5093109;28;20024;-54
2023/10/29 09:58:04;;;;;;;0.10;0.10;;;;;;;14.49;91.05;99291.91;5094250;28;20024;-56
2023/10/29 10:00:31;;;;;;;0.10;0.10;;;;;;;14.30;91.36;99302.47;5094097;28;20020;-54
2023/10/29 10:02:56;;;;;;;0.10;0.10;;;;;;;14.14;92.02;99295.75;5092865;28;20098;-55
2023/10/29 10:05:23;;;;;;;0.10;0.10;;;;;;;13.97;94.00;99282.97;5093664;28;20471;-55
2023/10/29 10:07:49;;;;;;;0.10;0.10;;;;;;;13.83;92.67;99270.16;5093190;28;20028;-55
2023/10/29 10:10:15;;;;;;;0.20;0.20;;;;;;;13.70;94.23;99273.69;5093673;28;20039;-54
2023/10/29 10:12:48;;;;;;;0.10;0.10;;;;;;;13.61;96.22;99264.31;5093392;28;20024;-56
2023/10/29 10:15:16;;;;;;;0.17;0.17;;;;;;;13.53;96.17;99276.44;5093462;28;20028;-55
2023/10/29 10:17:56;;;;;;;0.20;0.20;;;;;;;13.45;97.19;99284.25;5093196;28;20040;-55
2023/10/29 10:20:22;;;;;;;0.20;0.20;;;;;;;13.31;97.66;99274.84;5093621;28;20028;-54
2023/10/29 10:22:56;;;;;;;0.10;0.10;;;;;;;13.27;99.29;99275.72;5092938;28;20020;-55
2023/10/29 10:25:23;;;;;;;0.10;0.10;;;;;;;13.24;97.82;99262.81;5093470;28;20028;-55
2023/10/29 10:27:51;;;;;;;0.20;0.20;;;;;;;13.27;99.04;99269.69;5093085;28;20024;-55
2023/10/29 10:30:28;;;;;;;0.20;0.20;;;;;;;13.30;98.02;99259.31;5092849;28;20031;-54
2023/10/29 10:33:14;;;;;;;0.10;0.10;;;;;;;13.31;98.09;99267.06;5093136;28;20035;-54
2023/10/29 10:35:41;;;;;;;0.10;0.10;;;;;;;13.34;100.00;99273.94;5093136;28;20032;-55
2023/10/29 10:38:07;;;;;;;0.20;0.20;;;;;;;13.43;100.00;99266.16;5092683;28;20031;-54
2023/10/29 10:40:32;;;;;;;0.20;0.20;;;;;;;13.50;98.48;99270.41;5093538;28;20099;-54
2023/10/29 10:42:57;;;;;;;0.10;0.10;;;;;;;13.60;100.00;99278.94;5092619;28;20036;-54
2023/10/29 10:45:27;;;;;;;0.10;0.10;;;;;;;13.74;99.71;99296.97;5092576;28;20028;-55
2023/10/29 10:48:00;;;;;;;0.10;0.10;;;;;;;13.76;100.00;99299.53;5092759;28;20406;-54
2023/10/29 10:50:26;;;;;;;0.10;0.10;;;;;;;13.73;100.00;99310.78;5092668;28;20024;-55
2023/10/29 10:52:52;;;;;;;0.20;0.20;;;;;;;13.69;100.00;99314.28;5092472;28;20035;-54
2023/10/29 10:55:18;;;;;;;0.10;0.10;;;;;;;13.62;100.00;99317.75;5093077;28;20023;-53
2023/10/29 10:57:44;;;;;;;0.15;0.15;;;;;;;13.57;100.00;99316.94;5092098;28;20498;-55
2023/10/29 11:00:12;;;;;;;0.20;0.20;;;;;;;13.46;100.00;99311.84;5092772;28;20027;-54
2023/10/29 11:02:40;;;;;;;0.20;0.20;;;;;;;13.36;100.00;99303.25;5092576;28;20106;-54
2023/10/29 11:05:10;;;;;;;0.10;0.10;;;;;;;13.27;100.00;99301.59;5092585;28;20040;-54
2023/10/29 11:07:38;;;;;;;0.10;0.10;;;;;;;13.24;100.00;99295.59;5092534;28;20020;-53
2023/10/29 11:10:03;;;;;;;;;;;;;;;13.34;100.00;99302.41;5093277;28;20035;-54
2023/10/29 11:12:36;;;;;;;0.20;0.20;;;;;;;13.14;100.00;99295.66;5091918;28;19912;-55
2023/10/29 11:15:14;;;;;;;0.10;0.10;;;;;;;13.14;100.00;99306.00;5092796;28;20464;-54
2023/10/29 11:17:56;;;;;;;0.20;0.20;;;;;;;13.10;100.00;99296.50;5092520;28;20032;-52
2023/10/29 11:20:41;;;;;;;0.10;0.10;;;;;;;13.07;100.00;99286.19;5092126;28;20028;-54
2023/10/29 11:23:12;;;;;;;0.20;0.20;;;;;;;12.99;100.00;99273.31;5093046;28;20165;-54
2023/10/29 11:25:38;;;;;;;0.20;0.20;;;;;;;12.99;100.00;99262.97;5092186;28;20055;-54